sensor_id;sensor_type;location;lat;lon;timestamp;temperature;humidity
15834;DHT22;8017;50.812;4.934;2022-07-18T00:01:08;19.40;99.90
15834;DHT22;8017;50.812;4.934;2022-07-18T00:04:10;19.30;99.90
15834;DHT22;8017;50.812;4.934;2022-07-18T00:07:12;19.30;99.90
15834;DHT22;8017;50.812;4.934;2022-07-18T00:10:14;19.30;99.90
15834;DHT22;8017;50.812;4.934;2022-07-18T00:13:18;19.40;99.90
15834;DHT22;8017;50.812;4.934;2022-07-18T00:16:19;19.30;99.90
15834;DHT22;8017;50.812;4.934;2022-07-18T00:19:21;19.20;99.90
15834;DHT22;8017;50.812;4.934;2022-07-18T00:22:23;19.20;99.90
15834;DHT22;8017;50.812;4.934;2022-07-18T00:25:25;19.10;99.90
15834;DHT22;8017;50.812;4.934;2022-07-18T00:28:28;19.10;99.90
15834;DHT22;8017;50.812;4.934;2022-07-18T00:31:30;19.10;99.90
15834;DHT22;8017;50.812;4.934;2022-07-18T00:34:32;19.00;99.90
15834;DHT22;8017;50.812;4.934;2022-07-18T00:37:34;19.00;99.90
15834;DHT22;8017;50.812;4.934;2022-07-18T00:40:36;18.90;99.90
15834;DHT22;8017;50.812;4.934;2022-07-18T00:43:39;19.00;99.90
15834;DHT22;8017;50.812;4.934;2022-07-18T00:46:41;19.10;99.90
15834;DHT22;8017;50.812;4.934;2022-07-18T00:49:43;19.00;99.90
15834;DHT22;8017;50.812;4.934;2022-07-18T00:52:45;19.00;99.90
15834;DHT22;8017;50.812;4.934;2022-07-18T00:55:48;19.00;99.90
15834;DHT22;8017;50.812;4.934;2022-07-18T00:58:52;18.90;99.90
15834;DHT22;8017;50.812;4.934;2022-07-18T01:01:54;18.80;99.90
15834;DHT22;8017;50.812;4.934;2022-07-18T01:04:55;18.90;99.90
15834;DHT22;8017;50.812;4.934;2022-07-18T01:07:57;18.80;99.90
15834;DHT22;8017;50.812;4.934;2022-07-18T01:10:59;18.70;99.90
15834;DHT22;8017;50.812;4.934;2022-07-18T01:14:03;18.70;99.90
15834;DHT22;8017;50.812;4.934;2022-07-18T01:17:12;18.60;99.90
15834;DHT22;8017;50.812;4.934;2022-07-18T01:20:15;18.60;99.90
15834;DHT22;8017;50.812;4.934;2022-07-18T01:23:18;18.50;99.90
15834;DHT22;8017;50.812;4.934;2022-07-18T01:26:21;18.40;99.90
15834;DHT22;8017;50.812;4.934;2022-07-18T01:29:23;18.40;99.90
15834;DHT22;8017;50.812;4.934;2022-07-18T01:32:26;18.30;99.90
15834;DHT22;8017;50.812;4.934;2022-07-18T01:35:29;18.20;99.90
15834;DHT22;8017;50.812;4.934;2022-07-18T01:38:33;18.20;99.90
15834;DHT22;8017;50.812;4.934;2022-07-18T01:41:35;18.30;99.90
15834;DHT22;8017;50.812;4.934;2022-07-18T01:44:39;18.20;99.90
15834;DHT22;8017;50.812;4.934;2022-07-18T01:47:41;18.10;99.90
15834;DHT22;8017;50.812;4.934;2022-07-18T01:50:43;18.10;99.90
15834;DHT22;8017;50.812;4.934;2022-07-18T01:53:55;18.00;99.90
15834;DHT22;8017;50.812;4.934;2022-07-18T01:57:00;18.00;99.90
15834;DHT22;8017;50.812;4.934;2022-07-18T02:00:03;18.00;99.90
15834;DHT22;8017;50.812;4.934;2022-07-18T02:03:05;18.00;99.90
15834;DHT22;8017;50.812;4.934;2022-07-18T02:06:07;17.90;99.90
15834;DHT22;8017;50.812;4.934;2022-07-18T02:09:11;17.90;99.90
15834;DHT22;8017;50.812;4.934;2022-07-18T02:12:12;17.90;99.90
15834;DHT22;8017;50.812;4.934;2022-07-18T02:15:15;17.90;99.90
15834;DHT22;8017;50.812;4.934;2022-07-18T02:18:17;17.80;99.90
15834;DHT22;8017;50.812;4.934;2022-07-18T02:21:19;17.80;99.90
15834;DHT22;8017;50.812;4.934;2022-07-18T02:24:22;17.70;99.90
15834;DHT22;8017;50.812;4.934;2022-07-18T02:27:24;17.70;99.90
15834;DHT22;8017;50.812;4.934;2022-07-18T02:30:26;17.70;99.90
15834;DHT22;8017;50.812;4.934;2022-07-18T02:33:28;17.70;99.90
15834;DHT22;8017;50.812;4.934;2022-07-18T02:36:30;17.70;99.90
15834;DHT22;8017;50.812;4.934;2022-07-18T02:39:33;17.70;99.90
15834;DHT22;8017;50.812;4.934;2022-07-18T02:42:36;17.70;99.90
15834;DHT22;8017;50.812;4.934;2022-07-18T02:45:38;17.60;99.90
15834;DHT22;8017;50.812;4.934;2022-07-18T02:48:40;17.50;99.90
15834;DHT22;8017;50.812;4.934;2022-07-18T02:51:42;17.60;99.90
15834;DHT22;8017;50.812;4.934;2022-07-18T02:54:45;17.50;99.90
15834;DHT22;8017;50.812;4.934;2022-07-18T02:57:47;17.50;99.90
15834;DHT22;8017;50.812;4.934;2022-07-18T03:00:49;17.40;99.90
15834;DHT22;8017;50.812;4.934;2022-07-18T03:03:51;17.30;99.90
15834;DHT22;8017;50.812;4.934;2022-07-18T03:06:53;17.20;99.90
15834;DHT22;8017;50.812;4.934;2022-07-18T03:09:56;17.20;99.90
15834;DHT22;8017;50.812;4.934;2022-07-18T03:12:58;17.20;99.90
15834;DHT22;8017;50.812;4.934;2022-07-18T03:16:00;17.20;99.90
15834;DHT22;8017;50.812;4.934;2022-07-18T03:19:02;17.10;99.90
15834;DHT22;8017;50.812;4.934;2022-07-18T03:22:04;16.90;99.90
15834;DHT22;8017;50.812;4.934;2022-07-18T03:25:08;16.90;99.90
15834;DHT22;8017;50.812;4.934;2022-07-18T03:28:10;16.90;99.90
15834;DHT22;8017;50.812;4.934;2022-07-18T03:31:12;16.80;99.90
15834;DHT22;8017;50.812;4.934;2022-07-18T03:34:14;16.80;99.90
15834;DHT22;8017;50.812;4.934;2022-07-18T03:37:16;16.80;99.90
15834;DHT22;8017;50.812;4.934;2022-07-18T03:40:20;16.70;99.90
15834;DHT22;8017;50.812;4.934;2022-07-18T03:43:21;16.70;99.90
15834;DHT22;8017;50.812;4.934;2022-07-18T03:46:24;16.70;99.90
15834;DHT22;8017;50.812;4.934;2022-07-18T03:49:26;16.50;99.90
15834;DHT22;8017;50.812;4.934;2022-07-18T03:52:27;16.60;99.90
15834;DHT22;8017;50.812;4.934;2022-07-18T03:55:31;16.60;99.90
15834;DHT22;8017;50.812;4.934;2022-07-18T03:58:33;16.60;99.90
15834;DHT22;8017;50.812;4.934;2022-07-18T04:01:35;16.60;99.90
15834;DHT22;8017;50.812;4.934;2022-07-18T04:04:37;16.70;99.90
15834;DHT22;8017;50.812;4.934;2022-07-18T04:07:39;16.70;99.90
15834;DHT22;8017;50.812;4.934;2022-07-18T04:10:42;16.70;99.90
15834;DHT22;8017;50.812;4.934;2022-07-18T04:13:44;16.80;99.90
15834;DHT22;8017;50.812;4.934;2022-07-18T04:16:46;16.90;99.90
15834;DHT22;8017;50.812;4.934;2022-07-18T04:19:48;17.00;99.90
15834;DHT22;8017;50.812;4.934;2022-07-18T04:22:52;17.10;99.90
15834;DHT22;8017;50.812;4.934;2022-07-18T04:25:55;17.20;99.90
15834;DHT22;8017;50.812;4.934;2022-07-18T04:28:57;17.50;99.90
15834;DHT22;8017;50.812;4.934;2022-07-18T04:31:59;18.10;99.90
15834;DHT22;8017;50.812;4.934;2022-07-18T04:35:01;18.70;99.90
15834;DHT22;8017;50.812;4.934;2022-07-18T04:38:04;19.30;99.90
15834;DHT22;8017;50.812;4.934;2022-07-18T04:41:07;19.80;99.90
15834;DHT22;8017;50.812;4.934;2022-07-18T04:44:09;20.80;99.90
15834;DHT22;8017;50.812;4.934;2022-07-18T04:47:11;21.70;99.90
15834;DHT22;8017;50.812;4.934;2022-07-18T04:50:13;22.20;99.90
15834;DHT22;8017;50.812;4.934;2022-07-18T04:53:15;22.60;99.90
15834;DHT22;8017;50.812;4.934;2022-07-18T04:56:19;23.20;99.90
15834;DHT22;8017;50.812;4.934;2022-07-18T04:59:21;23.50;99.90
15834;DHT22;8017;50.812;4.934;2022-07-18T05:02:23;22.80;99.90
15834;DHT22;8017;50.812;4.934;2022-07-18T05:05:26;21.60;99.90
15834;DHT22;8017;50.812;4.934;2022-07-18T05:08:28;20.70;99.90
15834;DHT22;8017;50.812;4.934;2022-07-18T05:11:34;20.10;99.90
15834;DHT22;8017;50.812;4.934;2022-07-18T05:14:36;19.70;99.90
15834;DHT22;8017;50.812;4.934;2022-07-18T05:17:39;19.40;99.90
15834;DHT22;8017;50.812;4.934;2022-07-18T05:20:41;19.30;99.90
15834;DHT22;8017;50.812;4.934;2022-07-18T05:23:43;19.30;99.90
15834;DHT22;8017;50.812;4.934;2022-07-18T05:26:47;19.30;99.90
15834;DHT22;8017;50.812;4.934;2022-07-18T05:29:49;19.40;99.90
15834;DHT22;8017;50.812;4.934;2022-07-18T05:32:51;19.50;99.90
15834;DHT22;8017;50.812;4.934;2022-07-18T05:35:54;19.50;99.90
15834;DHT22;8017;50.812;4.934;2022-07-18T05:38:55;19.60;99.90
15834;DHT22;8017;50.812;4.934;2022-07-18T05:41:59;19.60;99.90
15834;DHT22;8017;50.812;4.934;2022-07-18T05:45:01;19.60;99.90
15834;DHT22;8017;50.812;4.934;2022-07-18T05:48:04;19.70;99.90
15834;DHT22;8017;50.812;4.934;2022-07-18T05:51:06;19.70;99.90
15834;DHT22;8017;50.812;4.934;2022-07-18T05:54:08;19.70;99.90
15834;DHT22;8017;50.812;4.934;2022-07-18T05:57:11;19.80;99.90
15834;DHT22;8017;50.812;4.934;2022-07-18T06:00:14;20.00;99.90
15834;DHT22;8017;50.812;4.934;2022-07-18T06:03:16;20.20;99.90
15834;DHT22;8017;50.812;4.934;2022-07-18T06:06:18;20.40;99.90
15834;DHT22;8017;50.812;4.934;2022-07-18T06:09:20;20.60;99.90
15834;DHT22;8017;50.812;4.934;2022-07-18T06:12:23;20.80;99.90
15834;DHT22;8017;50.812;4.934;2022-07-18T06:15:28;20.90;99.90
15834;DHT22;8017;50.812;4.934;2022-07-18T06:18:30;21.00;99.90
15834;DHT22;8017;50.812;4.934;2022-07-18T06:21:32;21.10;99.90
15834;DHT22;8017;50.812;4.934;2022-07-18T06:24:34;21.00;99.90
15834;DHT22;8017;50.812;4.934;2022-07-18T06:27:38;21.00;99.90
15834;DHT22;8017;50.812;4.934;2022-07-18T06:30:40;21.10;99.90
15834;DHT22;8017;50.812;4.934;2022-07-18T06:33:42;21.20;99.90
15834;DHT22;8017;50.812;4.934;2022-07-18T06:36:44;21.40;99.90
15834;DHT22;8017;50.812;4.934;2022-07-18T06:39:46;21.60;99.90
15834;DHT22;8017;50.812;4.934;2022-07-18T06:42:49;21.80;99.90
15834;DHT22;8017;50.812;4.934;2022-07-18T06:45:51;21.90;99.90
15834;DHT22;8017;50.812;4.934;2022-07-18T06:48:53;22.10;99.90
15834;DHT22;8017;50.812;4.934;2022-07-18T06:51:55;22.20;99.90
15834;DHT22;8017;50.812;4.934;2022-07-18T06:54:57;22.40;99.90
15834;DHT22;8017;50.812;4.934;2022-07-18T06:58:02;22.90;99.90
15834;DHT22;8017;50.812;4.934;2022-07-18T07:01:04;23.10;99.90
15834;DHT22;8017;50.812;4.934;2022-07-18T07:04:07;23.30;99.90
15834;DHT22;8017;50.812;4.934;2022-07-18T07:07:09;23.40;99.90
15834;DHT22;8017;50.812;4.934;2022-07-18T07:10:11;23.50;99.90
15834;DHT22;8017;50.812;4.934;2022-07-18T07:13:15;23.60;99.90
15834;DHT22;8017;50.812;4.934;2022-07-18T07:16:17;23.70;99.90
15834;DHT22;8017;50.812;4.934;2022-07-18T07:19:19;23.80;99.90
15834;DHT22;8017;50.812;4.934;2022-07-18T07:22:21;24.10;99.90
15834;DHT22;8017;50.812;4.934;2022-07-18T07:25:24;24.50;99.90
15834;DHT22;8017;50.812;4.934;2022-07-18T07:28:28;24.80;99.90
15834;DHT22;8017;50.812;4.934;2022-07-18T07:31:30;25.00;99.90
15834;DHT22;8017;50.812;4.934;2022-07-18T07:34:32;25.20;99.90
15834;DHT22;8017;50.812;4.934;2022-07-18T07:37:34;25.30;99.90
15834;DHT22;8017;50.812;4.934;2022-07-18T07:40:36;25.30;99.90
15834;DHT22;8017;50.812;4.934;2022-07-18T07:43:39;25.30;99.90
15834;DHT22;8017;50.812;4.934;2022-07-18T07:46:41;25.40;99.90
15834;DHT22;8017;50.812;4.934;2022-07-18T07:49:43;25.60;99.90
15834;DHT22;8017;50.812;4.934;2022-07-18T07:52:45;25.70;99.90
15834;DHT22;8017;50.812;4.934;2022-07-18T07:55:47;25.90;99.90
15834;DHT22;8017;50.812;4.934;2022-07-18T07:58:50;26.20;99.90
15834;DHT22;8017;50.812;4.934;2022-07-18T08:01:55;26.40;99.90
15834;DHT22;8017;50.812;4.934;2022-07-18T08:04:57;26.50;99.90
15834;DHT22;8017;50.812;4.934;2022-07-18T08:07:59;26.60;99.90
15834;DHT22;8017;50.812;4.934;2022-07-18T08:11:02;26.70;99.90
15834;DHT22;8017;50.812;4.934;2022-07-18T08:14:05;26.80;99.90
15834;DHT22;8017;50.812;4.934;2022-07-18T08:17:07;26.80;99.90
15834;DHT22;8017;50.812;4.934;2022-07-18T08:20:10;26.90;99.90
15834;DHT22;8017;50.812;4.934;2022-07-18T08:23:13;27.10;99.90
15834;DHT22;8017;50.812;4.934;2022-07-18T08:26:15;27.40;99.90
15834;DHT22;8017;50.812;4.934;2022-07-18T08:29:19;27.50;99.90
15834;DHT22;8017;50.812;4.934;2022-07-18T08:32:21;27.70;99.90
15834;DHT22;8017;50.812;4.934;2022-07-18T08:35:23;27.70;99.90
15834;DHT22;8017;50.812;4.934;2022-07-18T08:38:25;27.90;99.90
15834;DHT22;8017;50.812;4.934;2022-07-18T08:41:27;28.00;99.50
15834;DHT22;8017;50.812;4.934;2022-07-18T08:44:32;28.00;99.40
15834;DHT22;8017;50.812;4.934;2022-07-18T08:47:36;28.00;99.40
15834;DHT22;8017;50.812;4.934;2022-07-18T08:50:38;28.10;99.20
15834;DHT22;8017;50.812;4.934;2022-07-18T08:53:40;28.20;99.40
15834;DHT22;8017;50.812;4.934;2022-07-18T08:56:42;28.20;98.40
15834;DHT22;8017;50.812;4.934;2022-07-18T08:59:45;28.30;98.60
15834;DHT22;8017;50.812;4.934;2022-07-18T09:02:56;28.40;98.10
15834;DHT22;8017;50.812;4.934;2022-07-18T09:06:06;28.30;97.20
15834;DHT22;8017;50.812;4.934;2022-07-18T09:09:11;28.40;97.20
15834;DHT22;8017;50.812;4.934;2022-07-18T09:12:14;28.60;97.20
15834;DHT22;8017;50.812;4.934;2022-07-18T09:15:17;28.70;97.00
15834;DHT22;8017;50.812;4.934;2022-07-18T09:18:26;28.70;96.40
15834;DHT22;8017;50.812;4.934;2022-07-18T09:21:28;28.70;96.40
15834;DHT22;8017;50.812;4.934;2022-07-18T09:24:52;28.80;95.80
15834;DHT22;8017;50.812;4.934;2022-07-18T09:27:54;29.10;95.60
15834;DHT22;8017;50.812;4.934;2022-07-18T09:30:58;29.10;95.60
15834;DHT22;8017;50.812;4.934;2022-07-18T09:34:02;29.20;95.80
15834;DHT22;8017;50.812;4.934;2022-07-18T09:37:04;29.40;94.90
15834;DHT22;8017;50.812;4.934;2022-07-18T09:40:18;29.50;95.10
15834;DHT22;8017;50.812;4.934;2022-07-18T09:43:22;29.60;94.90
15834;DHT22;8017;50.812;4.934;2022-07-18T09:46:25;29.50;95.20
15834;DHT22;8017;50.812;4.934;2022-07-18T09:49:29;29.90;94.80
15834;DHT22;8017;50.812;4.934;2022-07-18T09:52:31;30.00;94.50
15834;DHT22;8017;50.812;4.934;2022-07-18T09:55:33;30.00;94.50
15834;DHT22;8017;50.812;4.934;2022-07-18T09:58:37;29.90;94.10
15834;DHT22;8017;50.812;4.934;2022-07-18T10:01:40;30.00;94.00
15834;DHT22;8017;50.812;4.934;2022-07-18T10:04:43;30.00;93.50
15834;DHT22;8017;50.812;4.934;2022-07-18T10:07:45;29.90;92.20
15834;DHT22;8017;50.812;4.934;2022-07-18T10:10:50;29.80;91.20
15834;DHT22;8017;50.812;4.934;2022-07-18T10:13:52;29.90;91.70
15834;DHT22;8017;50.812;4.934;2022-07-18T10:16:56;30.10;91.80
15834;DHT22;8017;50.812;4.934;2022-07-18T10:20:03;30.40;90.80
15834;DHT22;8017;50.812;4.934;2022-07-18T10:23:09;30.30;88.40
15834;DHT22;8017;50.812;4.934;2022-07-18T10:26:14;30.10;89.80
15834;DHT22;8017;50.812;4.934;2022-07-18T10:29:16;30.20;90.30
15834;DHT22;8017;50.812;4.934;2022-07-18T10:32:31;30.40;90.40
15834;DHT22;8017;50.812;4.934;2022-07-18T10:36:02;30.60;90.20
15834;DHT22;8017;50.812;4.934;2022-07-18T10:39:06;30.40;88.30
15834;DHT22;8017;50.812;4.934;2022-07-18T10:42:15;30.40;87.60
15834;DHT22;8017;50.812;4.934;2022-07-18T10:45:42;30.30;87.00
15834;DHT22;8017;50.812;4.934;2022-07-18T10:48:56;30.30;85.90
15834;DHT22;8017;50.812;4.934;2022-07-18T10:51:58;30.20;86.70
15834;DHT22;8017;50.812;4.934;2022-07-18T10:58:38;30.30;87.60
15834;DHT22;8017;50.812;4.934;2022-07-18T11:01:48;30.50;87.00
15834;DHT22;8017;50.812;4.934;2022-07-18T11:04:51;30.50;87.00
15834;DHT22;8017;50.812;4.934;2022-07-18T11:08:20;30.70;85.30
15834;DHT22;8017;50.812;4.934;2022-07-18T11:11:24;30.60;86.30
15834;DHT22;8017;50.812;4.934;2022-07-18T11:15:02;30.70;84.60
15834;DHT22;8017;50.812;4.934;2022-07-18T11:18:04;30.70;83.10
15834;DHT22;8017;50.812;4.934;2022-07-18T11:21:16;31.00;81.80
15834;DHT22;8017;50.812;4.934;2022-07-18T11:24:19;31.10;82.00
15834;DHT22;8017;50.812;4.934;2022-07-18T11:27:22;31.20;82.30
15834;DHT22;8017;50.812;4.934;2022-07-18T11:30:24;31.20;81.70
15834;DHT22;8017;50.812;4.934;2022-07-18T11:33:28;31.10;82.90
15834;DHT22;8017;50.812;4.934;2022-07-18T11:36:32;31.00;83.40
15834;DHT22;8017;50.812;4.934;2022-07-18T11:39:34;31.20;81.10
15834;DHT22;8017;50.812;4.934;2022-07-18T11:42:36;31.40;82.90
15834;DHT22;8017;50.812;4.934;2022-07-18T11:45:39;31.50;81.10
15834;DHT22;8017;50.812;4.934;2022-07-18T11:48:42;31.40;81.50
15834;DHT22;8017;50.812;4.934;2022-07-18T11:51:45;31.40;83.20
15834;DHT22;8017;50.812;4.934;2022-07-18T11:54:48;31.40;81.40
15834;DHT22;8017;50.812;4.934;2022-07-18T11:57:49;31.50;81.90
15834;DHT22;8017;50.812;4.934;2022-07-18T12:00:58;31.70;81.40
15834;DHT22;8017;50.812;4.934;2022-07-18T12:04:01;31.80;81.50
15834;DHT22;8017;50.812;4.934;2022-07-18T12:07:16;32.00;82.10
15834;DHT22;8017;50.812;4.934;2022-07-18T12:10:20;32.10;80.30
15834;DHT22;8017;50.812;4.934;2022-07-18T12:13:22;32.20;80.70
15834;DHT22;8017;50.812;4.934;2022-07-18T12:16:26;32.00;80.00
15834;DHT22;8017;50.812;4.934;2022-07-18T12:19:33;31.80;81.60
15834;DHT22;8017;50.812;4.934;2022-07-18T12:23:03;31.80;79.30
15834;DHT22;8017;50.812;4.934;2022-07-18T12:26:00;31.80;78.70
15834;DHT22;8017;50.812;4.934;2022-07-18T12:29:06;32.00;79.50
15834;DHT22;8017;50.812;4.934;2022-07-18T12:32:15;32.30;78.40
15834;DHT22;8017;50.812;4.934;2022-07-18T12:35:19;32.50;78.50
15834;DHT22;8017;50.812;4.934;2022-07-18T12:38:21;32.70;78.20
15834;DHT22;8017;50.812;4.934;2022-07-18T12:41:28;32.90;76.50
15834;DHT22;8017;50.812;4.934;2022-07-18T12:44:30;33.10;76.20
15834;DHT22;8017;50.812;4.934;2022-07-18T12:47:33;32.90;76.60
15834;DHT22;8017;50.812;4.934;2022-07-18T12:50:35;32.90;74.40
15834;DHT22;8017;50.812;4.934;2022-07-18T12:53:39;32.90;74.40
15834;DHT22;8017;50.812;4.934;2022-07-18T12:56:43;33.20;74.40
15834;DHT22;8017;50.812;4.934;2022-07-18T12:59:45;33.30;73.80
15834;DHT22;8017;50.812;4.934;2022-07-18T13:02:48;33.30;74.30
15834;DHT22;8017;50.812;4.934;2022-07-18T13:05:50;33.10;74.20
15834;DHT22;8017;50.812;4.934;2022-07-18T13:08:52;33.10;73.60
15834;DHT22;8017;50.812;4.934;2022-07-18T13:11:55;33.20;73.60
15834;DHT22;8017;50.812;4.934;2022-07-18T13:14:57;33.30;73.90
15834;DHT22;8017;50.812;4.934;2022-07-18T13:18:00;33.30;73.20
15834;DHT22;8017;50.812;4.934;2022-07-18T13:21:02;33.40;73.10
15834;DHT22;8017;50.812;4.934;2022-07-18T13:24:05;33.40;72.90
15834;DHT22;8017;50.812;4.934;2022-07-18T13:27:08;33.50;72.90
15834;DHT22;8017;50.812;4.934;2022-07-18T13:30:11;33.40;73.10
15834;DHT22;8017;50.812;4.934;2022-07-18T13:33:13;33.50;72.60
15834;DHT22;8017;50.812;4.934;2022-07-18T13:36:15;33.60;71.70
15834;DHT22;8017;50.812;4.934;2022-07-18T13:39:17;33.60;70.80
15834;DHT22;8017;50.812;4.934;2022-07-18T13:42:20;33.60;71.30
15834;DHT22;8017;50.812;4.934;2022-07-18T13:45:22;33.70;72.00
15834;DHT22;8017;50.812;4.934;2022-07-18T13:48:24;33.70;71.30
15834;DHT22;8017;50.812;4.934;2022-07-18T13:51:27;33.80;70.40
15834;DHT22;8017;50.812;4.934;2022-07-18T13:54:29;34.00;69.30
15834;DHT22;8017;50.812;4.934;2022-07-18T13:57:33;34.00;69.00
15834;DHT22;8017;50.812;4.934;2022-07-18T14:00:35;34.00;68.70
15834;DHT22;8017;50.812;4.934;2022-07-18T14:03:37;33.90;69.30
15834;DHT22;8017;50.812;4.934;2022-07-18T14:06:38;34.00;68.70
15834;DHT22;8017;50.812;4.934;2022-07-18T14:09:40;34.20;68.20
15834;DHT22;8017;50.812;4.934;2022-07-18T14:12:44;34.20;69.40
15834;DHT22;8017;50.812;4.934;2022-07-18T14:15:46;34.30;69.00
15834;DHT22;8017;50.812;4.934;2022-07-18T14:18:49;34.30;68.90
15834;DHT22;8017;50.812;4.934;2022-07-18T14:21:51;34.50;68.30
15834;DHT22;8017;50.812;4.934;2022-07-18T14:24:53;34.50;68.30
15834;DHT22;8017;50.812;4.934;2022-07-18T14:27:56;34.60;67.90
15834;DHT22;8017;50.812;4.934;2022-07-18T14:30:58;34.60;68.60
15834;DHT22;8017;50.812;4.934;2022-07-18T14:34:00;34.70;67.80
15834;DHT22;8017;50.812;4.934;2022-07-18T14:37:02;34.80;67.90
15834;DHT22;8017;50.812;4.934;2022-07-18T14:40:05;34.80;68.40
15834;DHT22;8017;50.812;4.934;2022-07-18T14:43:08;34.90;66.90
15834;DHT22;8017;50.812;4.934;2022-07-18T14:46:10;34.90;66.60
15834;DHT22;8017;50.812;4.934;2022-07-18T14:49:15;34.90;66.90
15834;DHT22;8017;50.812;4.934;2022-07-18T14:52:16;34.80;67.30
15834;DHT22;8017;50.812;4.934;2022-07-18T14:55:18;34.80;67.00
15834;DHT22;8017;50.812;4.934;2022-07-18T14:58:22;35.00;65.70
15834;DHT22;8017;50.812;4.934;2022-07-18T15:01:24;35.20;65.80
15834;DHT22;8017;50.812;4.934;2022-07-18T15:04:26;35.20;65.50
15834;DHT22;8017;50.812;4.934;2022-07-18T15:07:28;35.20;65.10
15834;DHT22;8017;50.812;4.934;2022-07-18T15:10:30;35.20;65.40
15834;DHT22;8017;50.812;4.934;2022-07-18T15:13:33;35.20;64.90
15834;DHT22;8017;50.812;4.934;2022-07-18T15:16:35;35.20;65.00
15834;DHT22;8017;50.812;4.934;2022-07-18T15:19:37;35.20;65.60
15834;DHT22;8017;50.812;4.934;2022-07-18T15:22:39;35.20;65.30
15834;DHT22;8017;50.812;4.934;2022-07-18T15:25:43;35.20;65.40
15834;DHT22;8017;50.812;4.934;2022-07-18T15:28:48;35.20;65.20
15834;DHT22;8017;50.812;4.934;2022-07-18T15:31:50;35.20;64.10
15834;DHT22;8017;50.812;4.934;2022-07-18T15:34:52;35.80;63.90
15834;DHT22;8017;50.812;4.934;2022-07-18T15:37:54;36.40;63.30
15834;DHT22;8017;50.812;4.934;2022-07-18T15:40:56;36.80;62.00
15834;DHT22;8017;50.812;4.934;2022-07-18T15:43:59;37.00;62.20
15834;DHT22;8017;50.812;4.934;2022-07-18T15:47:01;37.50;61.10
15834;DHT22;8017;50.812;4.934;2022-07-18T15:50:04;37.40;60.80
15834;DHT22;8017;50.812;4.934;2022-07-18T15:53:06;37.60;61.50
15834;DHT22;8017;50.812;4.934;2022-07-18T15:56:08;37.50;60.70
15834;DHT22;8017;50.812;4.934;2022-07-18T15:59:11;37.40;60.80
15834;DHT22;8017;50.812;4.934;2022-07-18T16:02:13;37.40;60.80
15834;DHT22;8017;50.812;4.934;2022-07-18T16:05:15;37.60;60.10
15834;DHT22;8017;50.812;4.934;2022-07-18T16:08:17;37.90;59.70
15834;DHT22;8017;50.812;4.934;2022-07-18T16:11:19;38.50;58.80
15834;DHT22;8017;50.812;4.934;2022-07-18T16:14:23;38.90;58.20
15834;DHT22;8017;50.812;4.934;2022-07-18T16:17:25;38.90;58.70
15834;DHT22;8017;50.812;4.934;2022-07-18T16:20:27;39.00;58.40
15834;DHT22;8017;50.812;4.934;2022-07-18T16:23:28;38.90;59.00
15834;DHT22;8017;50.812;4.934;2022-07-18T16:26:33;39.90;57.10
15834;DHT22;8017;50.812;4.934;2022-07-18T16:29:36;39.90;57.20
15834;DHT22;8017;50.812;4.934;2022-07-18T16:32:38;39.60;56.90
15834;DHT22;8017;50.812;4.934;2022-07-18T16:35:41;39.50;57.20
15834;DHT22;8017;50.812;4.934;2022-07-18T16:38:43;39.30;56.80
15834;DHT22;8017;50.812;4.934;2022-07-18T16:41:46;39.20;56.80
15834;DHT22;8017;50.812;4.934;2022-07-18T16:44:50;38.80;56.90
15834;DHT22;8017;50.812;4.934;2022-07-18T16:47:52;39.00;56.60
15834;DHT22;8017;50.812;4.934;2022-07-18T16:50:54;38.80;57.20
15834;DHT22;8017;50.812;4.934;2022-07-18T16:53:56;38.90;56.50
15834;DHT22;8017;50.812;4.934;2022-07-18T16:56:58;38.50;57.10
15834;DHT22;8017;50.812;4.934;2022-07-18T17:00:04;38.80;56.90
15834;DHT22;8017;50.812;4.934;2022-07-18T17:03:06;38.30;56.90
15834;DHT22;8017;50.812;4.934;2022-07-18T17:06:09;38.80;56.40
15834;DHT22;8017;50.812;4.934;2022-07-18T17:09:13;38.90;56.00
15834;DHT22;8017;50.812;4.934;2022-07-18T17:12:17;38.90;55.80
15834;DHT22;8017;50.812;4.934;2022-07-18T17:15:21;39.10;55.80
15834;DHT22;8017;50.812;4.934;2022-07-18T17:18:24;39.30;55.50
15834;DHT22;8017;50.812;4.934;2022-07-18T17:21:26;39.60;55.20
15834;DHT22;8017;50.812;4.934;2022-07-18T17:24:29;39.60;55.10
15834;DHT22;8017;50.812;4.934;2022-07-18T17:27:31;39.50;55.50
15834;DHT22;8017;50.812;4.934;2022-07-18T17:30:35;39.70;54.90
15834;DHT22;8017;50.812;4.934;2022-07-18T17:33:38;39.80;55.00
15834;DHT22;8017;50.812;4.934;2022-07-18T17:36:40;39.90;54.80
15834;DHT22;8017;50.812;4.934;2022-07-18T17:39:43;39.60;55.00
15834;DHT22;8017;50.812;4.934;2022-07-18T17:42:46;39.70;54.90
15834;DHT22;8017;50.812;4.934;2022-07-18T17:45:50;39.80;54.40
15834;DHT22;8017;50.812;4.934;2022-07-18T17:48:53;39.70;57.50
15834;DHT22;8017;50.812;4.934;2022-07-18T17:51:56;39.30;58.50
15834;DHT22;8017;50.812;4.934;2022-07-18T17:54:57;39.10;58.60
15834;DHT22;8017;50.812;4.934;2022-07-18T17:58:00;38.90;59.00
15834;DHT22;8017;50.812;4.934;2022-07-18T18:01:03;38.70;59.60
15834;DHT22;8017;50.812;4.934;2022-07-18T18:04:05;38.40;60.20
15834;DHT22;8017;50.812;4.934;2022-07-18T18:07:07;38.10;61.50
15834;DHT22;8017;50.812;4.934;2022-07-18T18:10:09;37.80;60.80
15834;DHT22;8017;50.812;4.934;2022-07-18T18:13:11;37.50;61.20
15834;DHT22;8017;50.812;4.934;2022-07-18T18:16:15;37.30;61.80
15834;DHT22;8017;50.812;4.934;2022-07-18T18:19:17;37.20;62.70
15834;DHT22;8017;50.812;4.934;2022-07-18T18:22:18;37.10;63.10
15834;DHT22;8017;50.812;4.934;2022-07-18T18:25:21;36.80;63.60
15834;DHT22;8017;50.812;4.934;2022-07-18T18:28:24;36.50;64.10
15834;DHT22;8017;50.812;4.934;2022-07-18T18:31:29;36.00;64.70
15834;DHT22;8017;50.812;4.934;2022-07-18T18:34:31;35.30;66.00
15834;DHT22;8017;50.812;4.934;2022-07-18T18:37:33;34.90;66.90
15834;DHT22;8017;50.812;4.934;2022-07-18T18:40:35;34.60;67.20
15834;DHT22;8017;50.812;4.934;2022-07-18T18:43:37;34.30;67.70
15834;DHT22;8017;50.812;4.934;2022-07-18T18:46:40;34.10;67.60
15834;DHT22;8017;50.812;4.934;2022-07-18T18:49:42;33.90;68.10
15834;DHT22;8017;50.812;4.934;2022-07-18T18:52:44;33.60;69.00
15834;DHT22;8017;50.812;4.934;2022-07-18T18:55:46;33.30;70.30
15834;DHT22;8017;50.812;4.934;2022-07-18T18:58:48;33.10;71.50
15834;DHT22;8017;50.812;4.934;2022-07-18T19:01:51;32.80;71.60
15834;DHT22;8017;50.812;4.934;2022-07-18T19:04:56;32.60;72.30
15834;DHT22;8017;50.812;4.934;2022-07-18T19:07:58;32.40;73.00
15834;DHT22;8017;50.812;4.934;2022-07-18T19:10:59;32.30;73.60
15834;DHT22;8017;50.812;4.934;2022-07-18T19:14:02;32.00;74.10
15834;DHT22;8017;50.812;4.934;2022-07-18T19:17:05;31.80;74.70
15834;DHT22;8017;50.812;4.934;2022-07-18T19:20:09;31.60;75.40
15834;DHT22;8017;50.812;4.934;2022-07-18T19:23:11;31.40;75.90
15834;DHT22;8017;50.812;4.934;2022-07-18T19:26:13;31.30;76.30
15834;DHT22;8017;50.812;4.934;2022-07-18T19:29:15;31.20;76.90
15834;DHT22;8017;50.812;4.934;2022-07-18T19:32:18;31.10;78.30
15834;DHT22;8017;50.812;4.934;2022-07-18T19:35:20;30.90;77.80
15834;DHT22;8017;50.812;4.934;2022-07-18T19:38:22;30.70;78.40